Time;durP1;ratioP1;P1;durP2;ratioP2;P2;SDS_P1;SDS_P2;PMS_P1;PMS_P2;Temp;Humidity;BMP_temperature;BMP_pressure;BME280_temperature;BME280_humidity;BME280_pressure;Samples;Min_cycle;Max_cycle;Signal;HPM_P1;HPM_P2
2021/04/02 00:00:57;;;;;;;18.62;6.00;;;12.10;99.90;;;;;;1893223;73;21049;-73
2021/04/02 00:03:24;;;;;;;16.87;5.95;;;11.90;99.90;;;;;;1906504;73;21127;-72
2021/04/02 00:05:50;;;;;;;18.12;5.75;;;12.00;99.90;;;;;;1910139;73;21082;-73
2021/04/02 00:08:16;;;;;;;20.27;6.17;;;12.10;99.90;;;;;;1915226;73;21508;-73
2021/04/02 00:10:42;;;;;;;17.05;7.25;;;12.00;99.90;;;;;;1898747;73;21466;-73
2021/04/02 00:13:08;;;;;;;22.80;6.53;;;12.00;99.90;;;;;;1903503;73;21485;-73
2021/04/02 00:15:34;;;;;;;14.25;5.78;;;12.10;99.90;;;;;;1903097;73;21519;-73
2021/04/02 00:18:00;;;;;;;27.20;6.78;;;12.00;99.90;;;;;;1895548;73;21609;-72
2021/04/02 00:20:26;;;;;;;15.18;6.97;;;11.90;99.90;;;;;;1903673;73;21087;-73
2021/04/02 00:22:53;;;;;;;24.02;8.10;;;11.80;99.90;;;;;;1896475;73;21123;-73
2021/04/02 00:25:20;;;;;;;26.40;8.50;;;11.80;99.90;;;;;;1900142;73;21088;-73
2021/04/02 00:27:46;;;;;;;21.80;8.68;;;11.80;99.90;;;;;;1905146;73;21058;-73
2021/04/02 00:30:12;;;;;;;24.55;9.38;;;11.80;99.90;;;;;;1915193;73;21138;-73
2021/04/02 00:32:38;;;;;;;16.93;7.47;;;11.70;99.90;;;;;;1909619;74;21153;-73
2021/04/02 00:35:04;;;;;;;18.85;6.92;;;11.60;99.90;;;;;;1893616;74;21092;-73
2021/04/02 00:37:30;;;;;;;18.32;6.45;;;11.50;99.90;;;;;;1896017;73;21505;-72
2021/04/02 00:39:57;;;;;;;15.05;5.30;;;11.50;99.90;;;;;;1893559;73;21558;-73
2021/04/02 00:42:23;;;;;;;19.70;6.12;;;11.40;99.90;;;;;;1905587;73;21652;-73
2021/04/02 00:44:49;;;;;;;11.95;4.95;;;11.30;99.90;;;;;;1894599;73;21469;-73
2021/04/02 00:47:15;;;;;;;16.20;5.47;;;11.30;99.90;;;;;;1896954;73;21550;-73
2021/04/02 00:49:41;;;;;;;14.28;5.65;;;11.30;99.90;;;;;;1897921;73;21658;-72
2021/04/02 00:52:07;;;;;;;8.88;4.95;;;11.40;99.90;;;;;;1899703;73;21506;-73
2021/04/02 00:54:33;;;;;;;12.35;4.85;;;11.30;99.90;;;;;;1908056;74;21154;-72
2021/04/02 00:57:00;;;;;;;17.07;5.30;;;11.20;99.90;;;;;;1894338;74;21088;-73
2021/04/02 00:59:26;;;;;;;19.52;5.78;;;11.10;99.90;;;;;;1905577;73;21076;-73
2021/04/02 01:01:52;;;;;;;23.83;6.22;;;10.90;99.90;;;;;;1907294;73;21075;-73
2021/04/02 01:04:18;;;;;;;13.75;5.83;;;10.80;99.90;;;;;;1893725;73;21081;-72
2021/04/02 01:06:44;;;;;;;14.23;6.17;;;10.70;99.90;;;;;;1906496;73;21084;-73
2021/04/02 01:09:11;;;;;;;12.30;6.03;;;10.70;99.90;;;;;;1894389;73;21510;-73
2021/04/02 01:11:37;;;;;;;17.07;5.85;;;10.80;99.90;;;;;;1904653;73;21574;-73
2021/04/02 01:14:03;;;;;;;11.40;4.78;;;10.80;99.90;;;;;;1907148;73;21483;-73
2021/04/02 01:16:29;;;;;;;14.47;5.92;;;10.80;99.90;;;;;;1894879;73;21085;-72
2021/04/02 01:18:55;;;;;;;10.93;5.28;;;10.80;99.90;;;;;;1802315;77;21108;-73
2021/04/02 01:21:21;;;;;;;13.78;6.65;;;10.80;99.90;;;;;;1902678;73;21088;-73
2021/04/02 01:23:48;;;;;;;17.75;5.90;;;10.70;99.90;;;;;;1911349;73;21107;-73
2021/04/02 01:26:14;;;;;;;11.50;5.58;;;10.60;99.90;;;;;;1899238;73;21141;-73
2021/04/02 01:28:40;;;;;;;11.50;4.87;;;10.50;99.90;;;;;;1908573;73;21072;-73
2021/04/02 01:31:08;;;;;;;11.50;5.47;;;10.40;99.90;;;;;;1901943;74;21045;-73
2021/04/02 01:33:34;;;;;;;12.70;5.40;;;10.50;99.90;;;;;;1897273;73;21080;-72
2021/04/02 01:36:00;;;;;;;12.25;5.53;;;10.50;99.90;;;;;;1911836;74;21074;-72
2021/04/02 01:38:26;;;;;;;14.10;5.85;;;10.50;99.90;;;;;;1890830;73;21132;-73
2021/04/02 01:40:52;;;;;;;14.80;5.92;;;10.50;99.90;;;;;;1895259;73;21388;-73
2021/04/02 01:43:18;;;;;;;15.95;6.83;;;10.40;99.90;;;;;;1896649;73;21089;-72
2021/04/02 01:45:44;;;;;;;14.13;6.28;;;10.30;99.90;;;;;;1897228;73;21194;-73
2021/04/02 01:48:10;;;;;;;22.40;8.70;;;10.30;99.90;;;;;;1902095;73;21053;-73
2021/04/02 01:50:37;;;;;;;20.60;9.00;;;10.30;99.90;;;;;;1910023;73;21080;-73
2021/04/02 01:53:04;;;;;;;23.10;8.68;;;10.20;99.90;;;;;;1907044;73;21086;-73
2021/04/02 01:55:30;;;;;;;20.25;8.80;;;10.20;99.90;;;;;;1905813;73;21079;-73
2021/04/02 01:57:56;;;;;;;31.07;8.75;;;10.20;99.90;;;;;;1917573;74;21092;-73
2021/04/02 02:00:22;;;;;;;23.35;8.85;;;10.20;99.90;;;;;;1893233;73;21080;-73
2021/04/02 02:02:49;;;;;;;21.27;8.98;;;10.10;99.90;;;;;;1902138;73;21087;-73
2021/04/02 02:05:15;;;;;;;26.70;9.05;;;10.10;99.90;;;;;;1896687;73;21509;-73
2021/04/02 02:07:41;;;;;;;20.08;7.92;;;10.10;99.90;;;;;;1915673;73;21508;-72
2021/04/02 02:10:07;;;;;;;19.57;8.15;;;10.20;99.90;;;;;;1904955;73;21642;-72
2021/04/02 02:12:33;;;;;;;19.75;8.33;;;10.30;99.90;;;;;;1895224;73;21537;-72
2021/04/02 02:14:59;;;;;;;24.80;8.85;;;10.30;99.90;;;;;;1902308;73;21520;-72
2021/04/02 02:17:25;;;;;;;24.52;8.63;;;10.30;99.90;;;;;;1907169;73;21446;-72
2021/04/02 02:19:51;;;;;;;22.48;7.75;;;10.40;99.90;;;;;;1900489;74;21513;-72
2021/04/02 02:22:18;;;;;;;24.32;7.97;;;10.40;99.90;;;;;;1901555;73;21131;-73
2021/04/02 02:24:44;;;;;;;20.48;7.97;;;10.40;99.90;;;;;;1905974;73;21283;-73
2021/04/02 02:27:10;;;;;;;14.50;6.95;;;10.40;99.90;;;;;;1904123;73;21049;-72
2021/04/02 02:29:36;;;;;;;16.42;6.00;;;10.50;99.90;;;;;;1905614;74;21087;-72
2021/04/02 02:32:02;;;;;;;16.05;6.45;;;10.50;99.90;;;;;;1900794;73;21076;-73
2021/04/02 02:34:28;;;;;;;20.62;6.20;;;10.50;99.90;;;;;;1903524;73;21154;-72
2021/04/02 02:36:54;;;;;;;18.20;7.12;;;10.50;99.90;;;;;;1900593;73;21153;-72
2021/04/02 02:39:20;;;;;;;16.02;6.17;;;10.40;99.90;;;;;;1898857;74;21259;-72
2021/04/02 02:41:47;;;;;;;10.93;5.42;;;10.40;99.90;;;;;;1904133;73;21092;-72
2021/04/02 02:44:13;;;;;;;18.70;6.17;;;10.30;99.90;;;;;;1895635;73;21145;-73
2021/04/02 02:46:39;;;;;;;14.23;5.90;;;10.30;99.90;;;;;;1888385;74;21085;-73
2021/04/02 02:49:05;;;;;;;14.58;5.08;;;10.20;99.90;;;;;;1898349;73;21154;-72
2021/04/02 02:51:31;;;;;;;12.35;5.45;;;10.10;99.90;;;;;;1891488;74;21054;-72
2021/04/02 02:53:57;;;;;;;11.08;4.25;;;10.10;99.90;;;;;;1906403;74;21279;-73
2021/04/02 02:56:23;;;;;;;11.75;4.50;;;10.00;99.90;;;;;;1909017;73;21130;-72
2021/04/02 02:58:49;;;;;;;18.42;5.22;;;10.10;99.90;;;;;;1899942;73;21538;-72
2021/04/02 03:01:16;;;;;;;10.55;4.20;;;10.00;99.90;;;;;;1898214;73;21528;-71
2021/04/02 03:03:42;;;;;;;8.00;3.90;;;10.00;99.90;;;;;;1896276;73;21076;-72
2021/04/02 03:06:08;;;;;;;8.65;3.22;;;10.00;99.90;;;;;;1910241;73;21084;-73
2021/04/02 03:08:34;;;;;;;8.18;3.27;;;10.00;99.90;;;;;;1900368;73;21173;-73
2021/04/02 03:11:00;;;;;;;9.53;3.92;;;10.10;99.90;;;;;;1899897;73;21045;-72
2021/04/02 03:13:26;;;;;;;7.10;3.33;;;10.10;99.90;;;;;;1897291;73;21084;-71
2021/04/02 03:15:52;;;;;;;11.95;3.92;;;10.30;99.90;;;;;;1910997;74;21076;-72
2021/04/02 03:18:19;;;;;;;5.83;3.65;;;10.40;99.90;;;;;;1896948;74;21072;-72
2021/04/02 03:20:45;;;;;;;10.93;3.95;;;10.40;99.90;;;;;;1912203;73;21528;-72
2021/04/02 03:23:11;;;;;;;6.72;3.85;;;10.40;99.90;;;;;;1898982;73;21602;-72
2021/04/02 03:25:37;;;;;;;8.15;3.83;;;10.30;99.90;;;;;;1905263;73;21495;-72
2021/04/02 03:28:03;;;;;;;10.30;3.40;;;10.40;99.90;;;;;;1899294;73;21728;-71
2021/04/02 03:30:29;;;;;;;12.70;3.83;;;10.40;99.90;;;;;;1909128;73;21519;-72
2021/04/02 03:32:55;;;;;;;7.58;3.55;;;10.30;99.90;;;;;;1890985;73;21521;-72
2021/04/02 03:35:21;;;;;;;8.40;3.70;;;10.30;99.90;;;;;;1895211;73;21237;-72
2021/04/02 03:37:48;;;;;;;10.35;3.85;;;10.20;99.90;;;;;;1901142;73;21091;-73
2021/04/02 03:40:14;;;;;;;9.73;3.40;;;10.10;99.90;;;;;;1904616;73;21136;-72
2021/04/02 03:42:40;;;;;;;15.48;3.65;;;10.10;99.90;;;;;;1905370;73;21083;-72
2021/04/02 03:45:06;;;;;;;10.40;3.12;;;10.20;99.90;;;;;;1896729;73;21088;-72
2021/04/02 03:47:32;;;;;;;9.43;3.52;;;10.10;99.90;;;;;;1904813;73;21165;-72
2021/04/02 03:49:58;;;;;;;5.12;3.33;;;10.10;99.90;;;;;;1898634;73;21157;-72
2021/04/02 03:52:24;;;;;;;10.48;3.47;;;10.10;99.90;;;;;;1889113;73;21161;-72
2021/04/02 03:54:50;;;;;;;6.67;2.90;;;10.30;99.90;;;;;;1903494;73;21080;-73
2021/04/02 03:57:17;;;;;;;5.85;3.08;;;10.20;99.90;;;;;;1892185;73;21162;-73
2021/04/02 03:59:43;;;;;;;5.28;2.80;;;10.20;99.90;;;;;;1905858;73;21081;-72
2021/04/02 04:02:09;;;;;;;7.10;2.60;;;10.20;99.90;;;;;;1916268;73;21091;-73
2021/04/02 04:04:35;;;;;;;9.30;3.20;;;10.10;99.90;;;;;;1895255;73;21102;-72
2021/04/02 04:07:01;;;;;;;5.90;2.60;;;10.00;99.90;;;;;;1897408;73;21084;-72
2021/04/02 04:09:27;;;;;;;5.60;2.65;;;10.10;99.90;;;;;;1903556;74;21084;-72
2021/04/02 04:11:54;;;;;;;8.10;2.90;;;10.10;99.90;;;;;;1909294;73;21104;-72
2021/04/02 04:14:20;;;;;;;7.28;3.08;;;9.90;99.90;;;;;;1901544;73;21083;-72
2021/04/02 04:16:46;;;;;;;6.40;2.33;;;9.90;99.90;;;;;;1901190;73;21083;-72
2021/04/02 04:19:12;;;;;;;4.53;2.17;;;9.90;99.90;;;;;;1900752;73;21084;-72
2021/04/02 04:21:38;;;;;;;6.10;2.80;;;9.80;99.90;;;;;;1899375;73;21496;-71
2021/04/02 04:24:05;;;;;;;6.55;2.47;;;9.70;99.90;;;;;;1903329;73;21605;-72
2021/04/02 04:26:31;;;;;;;4.20;2.45;;;9.50;99.90;;;;;;1904866;73;21161;-72
2021/04/02 04:28:57;;;;;;;6.92;2.87;;;9.50;99.90;;;;;;1895446;73;21268;-72
2021/04/02 04:31:23;;;;;;;4.90;2.12;;;9.40;99.90;;;;;;1905303;73;21123;-73
2021/04/02 04:33:49;;;;;;;5.37;2.33;;;9.40;99.90;;;;;;1906928;73;21084;-72
2021/04/02 04:36:16;;;;;;;8.08;2.20;;;9.40;99.90;;;;;;1893210;73;21080;-72
2021/04/02 04:38:42;;;;;;;6.05;2.10;;;9.30;99.90;;;;;;1898832;73;21165;-72
2021/04/02 04:41:08;;;;;;;3.47;2.02;;;9.20;99.90;;;;;;1900342;73;21084;-72
2021/04/02 04:43:34;;;;;;;6.37;2.42;;;9.20;99.90;;;;;;1890332;73;21227;-72
2021/04/02 04:46:00;;;;;;;6.75;2.30;;;9.30;99.90;;;;;;1902957;73;21057;-72
2021/04/02 04:48:26;;;;;;;3.87;2.50;;;9.10;99.90;;;;;;1898775;74;21149;-73
2021/04/02 04:50:52;;;;;;;3.98;2.08;;;8.90;99.90;;;;;;1902610;73;21091;-72
2021/04/02 04:53:19;;;;;;;6.62;2.15;;;8.90;99.90;;;;;;1908382;73;21079;-72
2021/04/02 04:55:45;;;;;;;4.45;2.08;;;8.80;99.90;;;;;;1905513;73;21083;-72
2021/04/02 04:58:11;;;;;;;3.65;2.02;;;8.60;99.90;;;;;;1905844;73;21088;-72
2021/04/02 05:00:37;;;;;;;7.58;1.90;;;8.60;99.90;;;;;;1900727;73;21178;-72
2021/04/02 05:03:03;;;;;;;8.63;2.20;;;8.50;99.90;;;;;;1898649;73;21083;-72
2021/04/02 05:05:29;;;;;;;4.42;1.82;;;8.40;99.90;;;;;;1921454;73;21092;-72
2021/04/02 05:07:55;;;;;;;6.15;2.10;;;8.50;99.90;;;;;;1897428;73;21093;-72
2021/04/02 05:10:22;;;;;;;5.78;2.30;;;8.50;99.90;;;;;;1906987;73;21087;-72
2021/04/02 05:12:48;;;;;;;3.40;1.90;;;8.40;99.90;;;;;;1903094;73;21080;-72
2021/04/02 05:15:14;;;;;;;6.03;2.22;;;8.30;99.90;;;;;;1899404;73;21048;-71
2021/04/02 05:17:40;;;;;;;5.17;2.27;;;8.30;99.90;;;;;;1897077;73;21082;-72
2021/04/02 05:20:06;;;;;;;5.12;2.17;;;8.30;99.90;;;;;;1916785;73;21083;-72
2021/04/02 05:22:32;;;;;;;6.30;2.15;;;8.30;99.90;;;;;;1899952;73;21150;-72
2021/04/02 05:24:59;;;;;;;3.75;2.00;;;8.30;99.90;;;;;;1910284;73;21563;-72
2021/04/02 05:27:26;;;;;;;4.37;2.27;;;8.30;99.90;;;;;;1899506;73;21573;-72
2021/04/02 05:29:52;;;;;;;4.78;2.25;;;8.30;99.90;;;;;;1906335;73;21221;-72
2021/04/02 05:32:18;;;;;;;3.00;1.90;;;8.30;99.90;;;;;;1914202;73;21158;-72
2021/04/02 05:34:44;;;;;;;7.42;2.15;;;8.20;99.90;;;;;;1901742;73;21045;-72
2021/04/02 05:37:11;;;;;;;6.50;1.90;;;8.20;99.90;;;;;;1895330;74;21481;-71
2021/04/02 05:39:37;;;;;;;6.05;1.80;;;8.20;99.90;;;;;;1910287;73;21464;-72
2021/04/02 05:42:03;;;;;;;3.00;2.00;;;8.20;99.90;;;;;;1903646;73;21244;-72
2021/04/02 05:44:29;;;;;;;4.60;2.15;;;8.20;99.90;;;;;;1904191;73;21526;-72
2021/04/02 05:46:55;;;;;;;3.75;2.05;;;8.20;99.90;;;;;;1904381;73;21075;-72
2021/04/02 05:49:21;;;;;;;3.58;1.72;;;8.20;99.90;;;;;;1927373;73;21037;-71
2021/04/02 05:51:47;;;;;;;3.52;1.82;;;8.10;99.90;;;;;;1900080;73;21072;-70
2021/04/02 05:54:14;;;;;;;3.90;2.35;;;8.00;99.90;;;;;;1904653;73;21142;-70
2021/04/02 05:56:40;;;;;;;3.72;2.30;;;8.10;99.90;;;;;;1904979;73;21174;-68
2021/04/02 05:59:06;;;;;;;8.05;2.05;;;8.20;99.90;;;;;;1905586;73;21072;-73
2021/04/02 06:01:32;;;;;;;10.25;2.05;;;8.10;99.90;;;;;;1897966;73;21496;-72
2021/04/02 06:03:58;;;;;;;3.45;2.22;;;8.20;99.90;;;;;;1901564;73;21473;-73
2021/04/02 06:06:24;;;;;;;2.98;1.75;;;8.30;99.90;;;;;;1903514;73;21445;-74
2021/04/02 06:08:50;;;;;;;4.90;2.02;;;8.30;99.90;;;;;;1897157;73;21607;-74
2021/04/02 06:11:16;;;;;;;7.47;2.52;;;8.30;99.90;;;;;;1893199;73;21241;-73
2021/04/02 06:13:43;;;;;;;2.15;1.95;;;8.30;99.90;;;;;;1893035;73;21232;-73
2021/04/02 06:16:09;;;;;;;3.80;2.33;;;8.30;99.90;;;;;;1901275;73;21076;-72
2021/04/02 06:18:35;;;;;;;12.25;2.47;;;8.40;99.90;;;;;;1905602;73;21057;-71
2021/04/02 06:21:01;;;;;;;3.37;2.15;;;8.50;99.90;;;;;;1903728;73;21076;-71
2021/04/02 06:23:30;;;;;;;4.83;2.30;;;8.50;99.90;;;;;;1900425;73;21585;-71
2021/04/02 06:25:56;;;;;;;4.33;2.40;;;8.30;99.90;;;;;;1904189;73;21211;-70
2021/04/02 06:28:22;;;;;;;3.15;2.25;;;8.30;99.90;;;;;;1893160;73;21140;-70
2021/04/02 06:30:48;;;;;;;5.30;2.95;;;8.50;99.90;;;;;;1891519;74;21177;-70
2021/04/02 06:33:15;;;;;;;2.47;2.20;;;8.60;99.90;;;;;;1897238;73;21145;-69
2021/04/02 06:35:41;;;;;;;3.25;1.82;;;8.70;99.90;;;;;;1897999;73;21045;-71
2021/04/02 06:38:07;;;;;;;4.65;2.02;;;8.90;99.90;;;;;;1898579;73;21057;-71
2021/04/02 06:40:33;;;;;;;4.87;2.05;;;9.00;99.90;;;;;;1891586;73;21159;-71
2021/04/02 06:43:00;;;;;;;4.78;2.45;;;9.00;99.90;;;;;;1900352;73;21158;-71
2021/04/02 06:45:26;;;;;;;6.03;2.55;;;9.20;99.90;;;;;;1893923;73;21159;-71
2021/04/02 06:47:52;;;;;;;3.67;2.22;;;9.40;99.90;;;;;;1902001;73;21193;-71
2021/04/02 06:50:18;;;;;;;4.12;2.37;;;9.50;99.90;;;;;;1905842;73;21189;-71
2021/04/02 06:52:44;;;;;;;4.17;2.42;;;9.60;99.90;;;;;;1897919;73;21121;-71
2021/04/02 06:55:11;;;;;;;3.40;2.05;;;9.70;99.90;;;;;;1911102;73;21140;-70
2021/04/02 06:57:37;;;;;;;3.15;2.20;;;9.50;99.90;;;;;;1904009;73;21084;-69
2021/04/02 07:00:03;;;;;;;8.25;2.47;;;9.50;99.90;;;;;;1896143;73;21146;-72
2021/04/02 07:02:29;;;;;;;4.90;2.92;;;9.60;99.90;;;;;;1893331;73;21228;-71
2021/04/02 07:04:55;;;;;;;6.03;2.60;;;9.50;99.90;;;;;;1888570;73;21096;-70
2021/04/02 07:07:21;;;;;;;9.85;3.20;;;9.60;99.90;;;;;;1905210;73;22752;-72
2021/04/02 07:09:47;;;;;;;4.83;2.40;;;9.70;99.90;;;;;;1929899;74;21211;-73
2021/04/02 07:12:13;;;;;;;5.08;2.70;;;9.80;99.90;;;;;;1897959;74;21508;-71
2021/04/02 07:14:40;;;;;;;2.65;2.17;;;9.90;99.90;;;;;;1897117;73;21480;-72
2021/04/02 07:17:06;;;;;;;4.60;2.50;;;10.00;99.90;;;;;;1902659;73;21071;-73
2021/04/02 07:19:32;;;;;;;4.40;2.85;;;10.10;99.90;;;;;;1910186;73;21079;-73
2021/04/02 07:21:58;;;;;;;6.33;2.52;;;10.00;99.90;;;;;;1910664;73;21127;-73
2021/04/02 07:24:24;;;;;;;8.53;3.05;;;10.00;99.90;;;;;;1911932;74;21084;-74
2021/04/02 07:26:51;;;;;;;4.35;2.52;;;10.10;99.90;;;;;;1904975;74;21079;-78
2021/04/02 07:29:17;;;;;;;4.17;2.70;;;10.20;99.90;;;;;;1903644;74;21621;-72
2021/04/02 07:31:43;;;;;;;7.95;2.62;;;10.20;99.90;;;;;;1900946;73;21516;-72
2021/04/02 07:34:09;;;;;;;5.35;2.77;;;10.30;99.90;;;;;;1917240;73;21053;-72
2021/04/02 07:36:35;;;;;;;9.28;2.95;;;10.20;99.90;;;;;;1892853;73;21079;-72
2021/04/02 07:39:01;;;;;;;3.58;2.62;;;10.10;99.90;;;;;;1898605;73;21254;-72
2021/04/02 07:41:28;;;;;;;3.85;2.90;;;10.20;99.90;;;;;;1908520;73;21088;-71
2021/04/02 07:43:55;;;;;;;7.83;3.10;;;10.10;99.90;;;;;;1915151;73;21049;-75
2021/04/02 07:46:24;;;;;;;3.98;2.98;;;10.40;99.90;;;;;;1914570;73;21512;-75
2021/04/02 07:48:49;;;;;;;6.37;2.72;;;10.40;99.90;;;;;;1902008;73;21145;-77
2021/04/02 07:51:15;;;;;;;4.53;2.98;;;10.30;99.90;;;;;;1902254;73;21197;-76
2021/04/02 07:53:41;;;;;;;5.55;2.52;;;10.50;99.90;;;;;;1901603;73;21048;-76
2021/04/02 07:56:07;;;;;;;8.63;3.02;;;10.30;99.90;;;;;;1911827;73;21162;-76
2021/04/02 07:58:34;;;;;;;4.50;2.67;;;10.30;99.90;;;;;;1897623;73;21177;-76
2021/04/02 08:01:00;;;;;;;4.80;2.90;;;10.40;99.90;;;;;;1897641;73;21083;-76
2021/04/02 08:03:26;;;;;;;8.20;2.70;;;10.50;99.90;;;;;;1895005;73;21099;-75
2021/04/02 08:05:52;;;;;;;6.17;2.87;;;10.80;99.90;;;;;;1895013;73;21596;-84
2021/04/02 08:08:19;;;;;;;7.95;3.22;;;11.00;99.90;;;;;;1895671;73;21582;-81
2021/04/02 08:10:45;;;;;;;8.50;3.20;;;10.50;99.90;;;;;;1912721;73;21188;-80
2021/04/02 08:13:11;;;;;;;4.20;2.95;;;10.80;99.90;;;;;;1915347;73;21086;-86
2021/04/02 08:15:37;;;;;;;6.08;3.33;;;10.90;99.90;;;;;;1903002;73;21087;-78
2021/04/02 08:18:03;;;;;;;6.20;3.35;;;11.30;99.90;;;;;;1892633;73;21092;-82
2021/04/02 08:20:30;;;;;;;7.00;3.40;;;11.20;99.90;;;;;;1904193;73;21272;-81
2021/04/02 08:22:56;;;;;;;5.92;3.05;;;11.50;99.90;;;;;;1900300;73;21100;-80
2021/04/02 08:25:24;;;;;;;11.60;3.40;;;11.50;99.90;;;;;;1904382;73;21158;-81
2021/04/02 08:27:50;;;;;;;8.30;3.47;;;11.80;99.90;;;;;;1906086;73;21158;-79
2021/04/02 08:30:16;;;;;;;4.37;2.98;;;11.80;99.90;;;;;;1900297;72;21257;-80
2021/04/02 08:32:42;;;;;;;4.90;2.80;;;12.30;99.90;;;;;;1898156;73;21084;-78
2021/04/02 08:35:08;;;;;;;5.08;2.55;;;12.10;99.90;;;;;;1892911;73;21134;-79
2021/04/02 08:37:34;;;;;;;9.28;3.10;;;12.40;99.90;;;;;;1897911;73;21244;-79
2021/04/02 08:40:01;;;;;;;4.25;3.00;;;12.60;99.90;;;;;;1900298;73;21079;-79
2021/04/02 08:42:27;;;;;;;6.55;4.20;;;12.20;99.90;;;;;;1899163;73;22562;-79
2021/04/02 08:44:53;;;;;;;5.90;3.25;;;12.30;99.90;;;;;;1900822;73;21183;-80
2021/04/02 08:47:19;;;;;;;5.65;3.10;;;12.30;99.90;;;;;;1897651;73;21147;-80
2021/04/02 08:49:48;;;;;;;7.03;3.10;;;13.00;99.90;;;;;;1892441;73;21091;-80
2021/04/02 08:52:13;;;;;;;7.45;3.42;;;13.50;99.90;;;;;;1904270;73;21546;-77
2021/04/02 08:54:39;;;;;;;5.17;3.02;;;13.90;99.90;;;;;;1893426;73;21456;-80
2021/04/02 08:57:06;;;;;;;4.97;2.80;;;13.20;99.90;;;;;;1907637;73;21476;-82
2021/04/02 08:59:32;;;;;;;7.45;3.37;;;13.10;99.90;;;;;;1898354;73;21581;-81
2021/04/02 09:01:58;;;;;;;10.03;3.50;;;13.50;99.90;;;;;;1908498;73;21146;-81
2021/04/02 09:04:24;;;;;;;11.05;3.02;;;13.30;99.90;;;;;;1903444;73;21151;-80
2021/04/02 09:06:50;;;;;;;8.40;3.50;;;13.10;99.90;;;;;;1900528;73;21076;-80
2021/04/02 09:09:16;;;;;;;7.92;3.58;;;13.30;99.90;;;;;;1902452;73;21089;-78
2021/04/02 09:11:42;;;;;;;7.05;3.72;;;13.50;99.90;;;;;;1903270;73;21561;-76
2021/04/02 09:14:09;;;;;;;11.93;3.75;;;13.80;99.90;;;;;;1897503;73;21553;-79
2021/04/02 09:16:35;;;;;;;5.45;3.08;;;13.90;99.90;;;;;;1905027;73;21119;-76
2021/04/02 09:19:01;;;;;;;5.60;2.85;;;14.00;99.90;;;;;;1905034;73;21057;-77
2021/04/02 09:21:27;;;;;;;7.00;3.45;;;13.80;99.90;;;;;;1890716;73;21051;-79
2021/04/02 09:23:54;;;;;;;8.78;3.58;;;13.80;99.90;;;;;;1898159;73;21093;-78
2021/04/02 09:26:20;;;;;;;7.37;3.50;;;13.40;99.90;;;;;;1903780;73;21157;-80
2021/04/02 09:28:46;;;;;;;6.80;3.65;;;13.30;99.90;;;;;;1901268;73;21118;-79
2021/04/02 09:31:12;;;;;;;8.23;3.27;;;13.80;99.90;;;;;;1899509;73;21209;-79
2021/04/02 09:33:38;;;;;;;6.20;3.47;;;14.20;99.90;;;;;;1875764;74;21036;-79
2021/04/02 09:36:04;;;;;;;11.73;3.27;;;14.20;99.90;;;;;;1907325;73;21155;-77
2021/04/02 09:38:30;;;;;;;11.18;3.75;;;13.90;99.90;;;;;;1902296;73;21183;-78
2021/04/02 09:40:56;;;;;;;9.13;3.42;;;13.50;99.90;;;;;;1921353;73;21079;-72
2021/04/02 09:43:23;;;;;;;6.00;3.25;;;13.60;99.90;;;;;;1908880;74;21142;-73
2021/04/02 09:45:49;;;;;;;8.75;4.15;;;13.80;99.90;;;;;;1905739;73;21095;-75
2021/04/02 09:48:15;;;;;;;6.95;3.25;;;13.70;99.90;;;;;;1905136;73;21444;-74
2021/04/02 09:50:41;;;;;;;4.35;2.85;;;14.20;99.90;;;;;;1892920;73;21266;-74
2021/04/02 09:53:07;;;;;;;7.90;3.22;;;14.00;99.90;;;;;;1904741;73;21141;-75
2021/04/02 09:55:33;;;;;;;5.75;3.30;;;13.80;99.90;;;;;;1892117;73;21143;-75
2021/04/02 09:57:59;;;;;;;5.90;3.30;;;13.50;99.90;;;;;;1908056;73;21075;-74
2021/04/02 10:00:25;;;;;;;7.65;3.60;;;13.50;99.90;;;;;;1902344;73;21151;-74
2021/04/02 10:02:52;;;;;;;6.05;3.42;;;14.10;99.90;;;;;;1884149;73;21112;-75
2021/04/02 10:05:18;;;;;;;3.90;2.80;;;14.20;99.90;;;;;;1904805;73;21178;-75
2021/04/02 10:07:44;;;;;;;7.45;4.00;;;13.90;99.90;;;;;;1898910;73;21585;-74
2021/04/02 10:10:10;;;;;;;7.20;3.55;;;14.70;99.90;;;;;;1893215;74;21520;-75
2021/04/02 10:12:36;;;;;;;5.25;2.90;;;14.80;99.90;;;;;;1882307;74;21120;-76
2021/04/02 10:15:02;;;;;;;6.22;3.00;;;14.80;99.90;;;;;;1879870;73;21080;-74
2021/04/02 10:17:29;;;;;;;11.45;3.60;;;14.80;99.90;;;;;;1888825;74;21074;-75
2021/04/02 10:19:55;;;;;;;5.03;3.60;;;15.30;99.90;;;;;;1902110;73;21088;-75
2021/04/02 10:22:21;;;;;;;5.33;3.20;;;15.40;99.90;;;;;;1892488;75;21456;-75
2021/04/02 10:24:47;;;;;;;4.00;2.83;;;15.00;99.90;;;;;;1875101;74;21141;-76
2021/04/02 10:27:15;;;;;;;7.58;3.77;;;14.80;99.90;;;;;;1876402;74;21147;-75
2021/04/02 10:29:41;;;;;;;4.42;3.05;;;15.40;99.90;;;;;;1893076;75;21535;-75
2021/04/02 10:32:07;;;;;;;9.68;3.00;;;15.90;99.90;;;;;;1893850;75;21480;-75
2021/04/02 10:34:33;;;;;;;6.62;3.00;;;15.70;99.90;;;;;;1882663;74;21544;-74
2021/04/02 10:36:59;;;;;;;4.90;2.98;;;15.20;99.90;;;;;;1894837;74;21581;-75
2021/04/02 10:39:26;;;;;;;4.37;2.87;;;14.10;99.90;;;;;;1869361;74;21603;-74
2021/04/02 10:44:37;;;;;;;4.53;2.75;;;14.50;99.90;;;;;;1872043;75;21104;-75
2021/04/02 10:47:03;;;;;;;5.60;3.08;;;15.30;99.90;;;;;;1856671;76;21133;-75
2021/04/02 10:49:29;;;;;;;4.25;2.90;;;16.10;99.90;;;;;;1872149;76;21081;-75
2021/04/02 10:51:55;;;;;;;6.35;2.77;;;16.40;99.90;;;;;;1881034;75;21047;-74
2021/04/02 10:54:22;;;;;;;6.10;2.98;;;16.20;99.90;;;;;;1878313;75;21225;-75
2021/04/02 10:56:48;;;;;;;5.33;2.60;;;16.00;99.90;;;;;;1871102;75;21082;-76
2021/04/02 10:59:14;;;;;;;5.17;2.45;;;16.30;99.90;;;;;;1876688;75;21086;-74
2021/04/02 11:01:40;;;;;;;6.15;2.77;;;16.20;99.90;;;;;;1878721;75;21081;-76
2021/04/02 11:04:06;;;;;;;7.58;2.22;;;15.70;99.90;;;;;;1873868;76;21086;-76
2021/04/02 11:06:32;;;;;;;7.80;2.70;;;15.70;99.90;;;;;;1881256;75;21346;-76
2021/04/02 11:08:58;;;;;;;6.03;3.37;;;14.90;99.90;;;;;;1882336;75;21059;-76
2021/04/02 11:11:24;;;;;;;4.60;2.52;;;14.90;99.90;;;;;;1881920;76;21569;-76
2021/04/02 11:13:51;;;;;;;4.95;2.80;;;15.40;99.90;;;;;;1884359;75;21494;-76
2021/04/02 11:16:17;;;;;;;4.28;2.65;;;15.70;99.90;;;;;;1885295;74;21469;-76
2021/04/02 11:18:46;;;;;;;8.15;3.22;;;15.70;99.90;;;;;;1882834;75;21068;-77
2021/04/02 11:21:12;;;;;;;4.15;2.60;;;16.00;99.90;;;;;;1879620;76;21060;-76
2021/04/02 11:23:38;;;;;;;6.00;3.02;;;16.70;99.90;;;;;;1883422;75;21095;-77
2021/04/02 11:26:05;;;;;;;5.65;2.90;;;16.90;99.90;;;;;;1883380;75;21198;-77
2021/04/02 11:28:31;;;;;;;3.50;2.47;;;17.00;99.90;;;;;;1883133;76;21164;-76
2021/04/02 11:30:57;;;;;;;5.85;3.25;;;17.60;99.90;;;;;;1884412;76;21084;-77
2021/04/02 11:33:23;;;;;;;4.45;2.87;;;17.80;98.60;;;;;;1876442;76;21094;-77
2021/04/02 11:35:49;;;;;;;6.92;3.00;;;18.40;97.10;;;;;;1877952;75;21080;-76
2021/04/02 11:38:15;;;;;;;8.40;3.00;;;18.00;97.20;;;;;;1884830;75;21088;-76
2021/04/02 11:40:42;;;;;;;7.83;2.83;;;16.80;99.50;;;;;;1884388;76;21136;-76
2021/04/02 11:43:08;;;;;;;4.87;2.77;;;16.50;99.90;;;;;;1880495;75;21092;-76
2021/04/02 11:45:34;;;;;;;4.65;2.72;;;16.90;99.30;;;;;;1884513;75;21088;-78
2021/04/02 11:48:00;;;;;;;6.10;3.05;;;17.20;97.70;;;;;;1880500;76;21153;-78
2021/04/02 11:50:26;;;;;;;3.75;2.70;;;17.00;96.90;;;;;;1885139;75;21092;-78
2021/04/02 11:52:53;;;;;;;6.40;3.15;;;17.50;96.70;;;;;;1871415;75;21443;-79
2021/04/02 11:55:19;;;;;;;5.40;2.98;;;18.30;95.60;;;;;;1876566;75;21478;-79
2021/04/02 11:57:45;;;;;;;4.67;2.45;;;17.90;95.00;;;;;;1866416;75;21081;-78
2021/04/02 12:00:11;;;;;;;3.87;2.33;;;17.90;95.20;;;;;;1855392;76;21481;-79
2021/04/02 12:02:37;;;;;;;4.95;2.52;;;18.20;94.60;;;;;;1871671;75;21428;-77
2021/04/02 12:05:03;;;;;;;3.27;2.10;;;17.90;95.60;;;;;;1869346;75;21517;-78
2021/04/02 12:07:29;;;;;;;12.55;3.05;;;18.60;94.30;;;;;;1869139;76;21081;-78
2021/04/02 12:09:55;;;;;;;5.12;2.65;;;19.00;91.30;;;;;;1872364;74;21066;-78
2021/04/02 12:12:24;;;;;;;3.10;2.12;;;18.60;91.50;;;;;;1869175;74;21070;-78
2021/04/02 12:14:50;;;;;;;2.60;2.08;;;18.30;93.10;;;;;;1879794;74;21081;-77
2021/04/02 12:17:17;;;;;;;2.72;2.22;;;18.00;92.10;;;;;;1863728;76;21081;-79
2021/04/02 12:19:43;;;;;;;3.92;2.25;;;18.50;90.60;;;;;;1868907;75;21058;-78
2021/04/02 12:22:09;;;;;;;3.45;1.92;;;18.60;88.70;;;;;;1863118;76;21050;-78
2021/04/02 12:24:37;;;;;;;3.80;2.12;;;18.30;88.50;;;;;;1878569;76;21086;-77
2021/04/02 12:27:03;;;;;;;2.02;1.70;;;18.60;84.30;;;;;;1872400;76;21206;-77
2021/04/02 12:29:29;;;;;;;3.02;1.85;;;18.70;82.10;;;;;;1872440;75;21147;-78
2021/04/02 12:31:55;;;;;;;2.52;1.85;;;18.80;82.30;;;;;;1873383;75;21144;-78
2021/04/02 12:34:21;;;;;;;7.30;2.17;;;19.00;83.60;;;;;;1872015;75;21085;-78
2021/04/02 12:36:47;;;;;;;2.55;1.67;;;19.00;83.50;;;;;;1865945;75;21199;-79
2021/04/02 12:39:14;;;;;;;3.67;2.10;;;19.50;79.00;;;;;;1872588;75;21637;-78
2021/04/02 12:41:40;;;;;;;5.17;2.20;;;18.30;83.20;;;;;;1857652;75;21526;-78